LFPM 191830Z AUTO 31011KT 9999 FEW023/// SCT041/// BKN050/// ///CB 09/08 Q1017

Les avions qui composent notre flotte

Beechcraft 33 Bonanza

Le haut de gamme de l'aviation légère
IFR, Pas variable, Train rentrant

F-BRIZ


F-BRIZ Planche